Carbondale, CO

10:07 PM MST on February 26, 2015 (GMT -0700)
Sunlight Mountain | Change Station
CLOSE
Current Station
Airport
Location: Sunlight Mountain,
Elevation: 10604 ft
Nearby Weather Stations

Elev 10604 ft 39.43 °N, 107.38 °W | Updated 12 minutes ago

Overcast
Overcast
16 °F
Feels Like 16 °F
N
0
Wind Variable Wind from North

Today
High -- | Low -- °F
--% Chance of Precip.
Yesterday
High -- | Low -- °F
Precip. -- in
6:46 AM 5:57 PM
Waxing Gibbous, 65% visible
Pressure 29.73 in
Visibility 1.0 miles
Clouds Overcast 300 ft
Dew Point 14 °F
Humidity 93%
Rainfall 0.00 in
Snow Depth Not available.
UV 0 out of 12
Pollen 2.70 out of 12
Air Quality Not available.
Flu Activity Not available.
METAR K5SM 270455Z AUTO 00000KT 1SM SN OVC003 M09/M10 A2973 RMK AO2

More Conditions Fewer Conditions

Pressure 29.73 in
Visibility 1.0 miles
Clouds Overcast 300 ft
Dew Point 14 °F
Humidity 93%
Rainfall 0.00 in
Snow Depth Not available.
UV 0 out of 12
Pollen 2.70 out of 12
Air Quality Not available.
Flu Activity Not available.
METAR K5SM 270455Z AUTO 00000KT 1SM SN OVC003 M09/M10 A2973 RMK AO2

More Conditions Fewer Conditions

10-Day Weather Forecast

Almanac

Astronomy

Feb. 26, 2015 Rise Set
Actual Time
Civil Twilight
Nautical Twilight
Astronomical Twilight
Moon
Length of Visible Light
Length of Day
Tomorrow will be .
, % of the Moon is Illuminated

Today's Extremes

State Highs State Lows

Community

WunderPhotos

Upload Photos

1,800,636 photos uploaded!

WunderBlogs® & News

Nearby

Air Quality

  Air Quality AQ Index Pollutant
Not available.

Snow Depth

Station Depth Elevation

Earthquake Activity

City Distance Mag. Time & Date
Minimum magnitude displayed is 2.5.

Coastal Water Temperatures

Place Temperature

Nearby Weather Stations